Time;durP1;ratioP1;P1;durP2;ratioP2;P2;SDS_P1;SDS_P2;PMS_P1;PMS_P2;Temp;Humidity;BMP_temperature;BMP_pressure;BME280_temperature;BME280_humidity;BME280_pressure;Samples;Min_cycle;Max_cycle;Signal;HPM_P1;HPM_P2
2021/06/20 00:01:33;;;;;;;11.60;9.27;;;;;;;19.16;88.59;101041.59;5080172;28;20406;-73
2021/06/20 00:03:59;;;;;;;11.60;8.88;;;;;;;19.13;88.77;101042.78;5084220;28;20503;-72
2021/06/20 00:06:35;;;;;;;11.95;9.45;;;;;;;19.12;88.65;101035.00;5067672;28;20037;-73
2021/06/20 00:09:11;;;;;;;11.05;8.60;;;;;;;19.07;88.67;101035.59;5073332;28;20042;-73
2021/06/20 00:11:38;;;;;;;11.98;8.88;;;;;;;19.09;88.74;101027.44;5097681;28;20065;-73
2021/06/20 00:14:06;;;;;;;10.65;7.57;;;;;;;19.08;89.21;101010.66;5082733;28;20031;-73
2021/06/20 00:16:32;;;;;;;12.70;8.88;;;;;;;18.96;89.58;100990.94;5060347;28;20029;-73
2021/06/20 00:18:58;;;;;;;10.95;8.55;;;;;;;18.85;89.76;100992.31;5063547;28;20044;-74
2021/06/20 00:21:25;;;;;;;11.52;8.63;;;;;;;18.79;90.03;100985.09;5061398;28;20093;-72
2021/06/20 00:23:50;;;;;;;15.82;9.48;;;;;;;18.82;90.45;100979.44;5067096;28;20091;-73
2021/06/20 00:26:17;;;;;;;19.55;9.60;;;;;;;18.72;90.69;100969.09;5069324;28;20393;-72
2021/06/20 00:28:42;;;;;;;14.32;9.20;;;;;;;18.81;90.86;100964.50;5080180;28;20060;-72
2021/06/20 00:31:16;;;;;;;14.55;9.55;;;;;;;18.80;90.48;100954.88;5080600;28;20040;-72
2021/06/20 00:33:45;;;;;;;11.30;9.55;;;;;;;18.85;90.51;100955.09;5083995;28;20094;-73
2021/06/20 00:36:11;;;;;;;11.77;9.80;;;;;;;18.88;90.12;100946.75;5061684;28;20033;-73
2021/06/20 00:38:38;;;;;;;12.65;9.50;;;;;;;18.90;90.13;100934.09;5056411;28;20011;-72
2021/06/20 00:41:05;;;;;;;11.23;9.32;;;;;;;18.91;90.03;100913.63;5049310;28;20051;-73
2021/06/20 00:43:31;;;;;;;11.00;9.00;;;;;;;18.96;89.68;100905.91;5072100;28;20039;-74
2021/06/20 00:45:56;;;;;;;12.93;9.57;;;;;;;19.04;89.40;100901.25;5078283;28;20218;-73
2021/06/20 00:48:22;;;;;;;10.38;9.35;;;;;;;19.01;89.36;100906.13;5072247;28;20043;-73
2021/06/20 00:50:48;;;;;;;10.55;9.45;;;;;;;19.08;88.72;100898.16;5067585;28;20044;-73
2021/06/20 00:53:14;;;;;;;10.80;8.88;;;;;;;19.08;88.93;100887.53;5071959;28;20119;-71
2021/06/20 00:55:40;;;;;;;12.52;8.75;;;;;;;19.12;88.41;100884.28;5064510;28;20040;-72
2021/06/20 00:58:07;;;;;;;10.90;9.00;;;;;;;19.10;88.81;100890.81;5073223;28;20040;-72
2021/06/20 01:00:36;;;;;;;13.15;9.82;;;;;;;19.03;88.85;100880.97;5045024;28;20024;-73
2021/06/20 01:03:04;;;;;;;10.10;9.00;;;;;;;19.10;88.48;100882.84;5081318;28;20552;-73
2021/06/20 01:05:30;;;;;;;12.35;9.68;;;;;;;19.05;88.82;100881.59;5048759;28;20113;-73
2021/06/20 01:07:56;;;;;;;12.25;9.60;;;;;;;19.08;88.54;100888.38;5071690;28;20063;-72
2021/06/20 01:10:28;;;;;;;13.70;9.35;;;;;;;19.10;88.57;100896.13;5096317;28;20058;-73
2021/06/20 01:12:54;;;;;;;13.35;9.50;;;;;;;19.12;88.40;100896.75;5094109;28;20034;-72
2021/06/20 01:15:22;;;;;;;13.88;9.90;;;;;;;19.08;88.98;100896.34;5079010;28;20040;-72
2021/06/20 01:17:48;;;;;;;11.55;9.88;;;;;;;19.08;88.59;100896.34;5082876;28;20032;-73
2021/06/20 01:20:19;;;;;;;12.32;9.35;;;;;;;19.07;88.32;100908.00;5042202;28;20549;-72
2021/06/20 01:22:51;;;;;;;12.77;9.77;;;;;;;18.99;89.03;100914.31;5053946;28;20044;-73
2021/06/20 01:25:21;;;;;;;10.52;8.98;;;;;;;18.92;88.94;100932.03;5080646;28;20028;-72
2021/06/20 01:27:53;;;;;;;12.35;9.02;;;;;;;18.88;90.08;100944.09;5068196;28;20036;-73
2021/06/20 01:30:22;;;;;;;11.57;10.32;;;;;;;18.83;89.93;100951.81;5082555;28;20031;-73
2021/06/20 01:32:49;;;;;;;12.35;10.38;;;;;;;18.82;90.04;100969.63;5084741;28;20043;-73
2021/06/20 01:35:15;;;;;;;13.18;9.60;;;;;;;18.76;89.91;100973.03;5080810;28;20174;-73
2021/06/20 01:37:42;;;;;;;11.43;9.32;;;;;;;18.73;90.49;100969.94;5061204;28;20515;-73
2021/06/20 01:40:11;;;;;;;14.35;9.80;;;;;;;18.72;90.21;100962.97;5071667;28;20115;-74
2021/06/20 01:42:38;;;;;;;12.07;9.60;;;;;;;18.62;90.86;100952.69;5072538;28;20047;-73
2021/06/20 01:45:05;;;;;;;10.38;9.30;;;;;;;18.63;91.21;100951.69;5054295;28;20033;-72
2021/06/20 01:47:32;;;;;;;10.45;8.48;;;;;;;18.62;90.84;100944.72;5062640;28;20047;-73
2021/06/20 01:50:00;;;;;;;10.38;8.90;;;;;;;18.61;91.19;100935.94;5067571;28;20028;-73
2021/06/20 01:52:27;;;;;;;11.40;8.57;;;;;;;18.63;91.52;100927.78;5062972;28;20492;-73
2021/06/20 01:54:54;;;;;;;13.48;8.77;;;;;;;18.61;91.41;100919.16;5075249;28;20036;-72
2021/06/20 01:57:26;;;;;;;14.45;9.05;;;;;;;18.59;91.72;100902.59;5045332;28;20485;-72
2021/06/20 01:59:52;;;;;;;10.73;7.88;;;;;;;18.54;91.85;100895.22;5058827;28;20746;-72
2021/06/20 02:02:19;;;;;;;12.88;8.93;;;;;;;18.54;92.05;100897.88;5075241;28;20485;-72
2021/06/20 02:04:45;;;;;;;11.07;8.73;;;;;;;18.51;91.89;100889.47;5081241;28;20040;-72
2021/06/20 02:07:12;;;;;;;13.23;9.40;;;;;;;18.53;91.96;100879.47;5069477;28;20060;-73
2021/06/20 02:09:38;;;;;;;11.15;9.00;;;;;;;18.53;92.41;100872.31;5082069;28;20027;-73
2021/06/20 02:12:04;;;;;;;10.90;9.05;;;;;;;18.56;92.18;100856.00;5081320;28;20630;-73
2021/06/20 02:14:33;;;;;;;11.75;8.73;;;;;;;18.63;91.96;100856.88;5070313;28;20041;-73
2021/06/20 02:16:58;;;;;;;10.85;9.45;;;;;;;18.65;91.81;100854.03;5083188;28;20043;-72
2021/06/20 02:19:24;;;;;;;10.90;9.80;;;;;;;18.69;91.96;100852.59;5062308;28;20027;-73
2021/06/20 02:21:50;;;;;;;16.67;10.77;;;;;;;18.66;91.60;100848.47;5073539;28;20111;-73
2021/06/20 02:24:16;;;;;;;12.80;10.05;;;;;;;18.79;91.59;100850.38;5080672;28;20040;-73
2021/06/20 02:26:41;;;;;;;15.63;10.10;;;;;;;18.77;91.21;100865.72;5078680;28;20028;-74
2021/06/20 02:29:07;;;;;;;14.68;10.63;;;;;;;18.78;90.95;100871.84;5067433;28;20032;-74
2021/06/20 02:31:32;;;;;;;12.32;11.13;;;;;;;18.74;91.24;100865.28;5085798;28;20035;-75
2021/06/20 02:33:58;;;;;;;14.02;10.90;;;;;;;18.74;91.79;100857.31;5078700;28;20044;-74
2021/06/20 02:36:23;;;;;;;12.15;10.70;;;;;;;18.73;91.74;100848.53;5067399;28;20035;-73
2021/06/20 02:38:49;;;;;;;16.15;11.82;;;;;;;18.74;91.20;100831.59;5074479;28;20036;-74
2021/06/20 02:41:14;;;;;;;17.50;11.10;;;;;;;18.74;91.82;100818.31;5062842;28;20040;-74
2021/06/20 02:43:40;;;;;;;14.52;11.32;;;;;;;18.76;91.27;100816.25;5079020;28;20396;-74
2021/06/20 02:46:05;;;;;;;14.55;10.77;;;;;;;18.78;91.46;100810.72;5093488;28;20118;-73
2021/06/20 02:48:31;;;;;;;12.50;11.10;;;;;;;18.71;91.99;100799.28;5064355;28;20500;-73
2021/06/20 02:50:56;;;;;;;13.65;11.07;;;;;;;18.76;91.76;100797.66;5067349;28;20111;-73
2021/06/20 02:53:22;;;;;;;16.08;10.35;;;;;;;18.74;91.68;100791.72;5085735;28;20111;-73
2021/06/20 02:55:47;;;;;;;16.30;10.32;;;;;;;18.79;91.85;100785.81;5057745;28;20055;-73
2021/06/20 02:58:13;;;;;;;14.20;10.15;;;;;;;18.84;91.43;100778.09;5066775;28;20036;-74
2021/06/20 03:00:38;;;;;;;11.95;10.48;;;;;;;18.84;90.99;100772.78;5066132;28;20480;-73
2021/06/20 03:03:06;;;;;;;11.85;10.65;;;;;;;18.80;91.79;100763.53;5066507;28;20042;-74
2021/06/20 03:05:32;;;;;;;14.80;10.35;;;;;;;18.81;91.50;100757.22;5050165;28;20063;-73
2021/06/20 03:07:57;;;;;;;13.07;10.30;;;;;;;18.82;91.71;100750.91;5049926;28;20063;-74
2021/06/20 03:10:23;;;;;;;13.05;9.57;;;;;;;18.78;91.87;100745.13;5093983;28;20084;-74
2021/06/20 03:12:48;;;;;;;11.68;10.57;;;;;;;18.79;91.84;100744.09;5092156;28;20032;-73
2021/06/20 03:15:14;;;;;;;11.95;9.65;;;;;;;18.83;91.86;100740.06;5086589;28;20400;-73
2021/06/20 03:17:40;;;;;;;12.48;10.23;;;;;;;18.85;91.43;100729.22;5083524;28;20392;-73
2021/06/20 03:20:06;;;;;;;13.85;10.02;;;;;;;18.89;91.44;100740.28;5077118;28;20036;-73
2021/06/20 03:22:32;;;;;;;12.88;9.38;;;;;;;18.84;91.79;100736.38;5087787;28;20386;-74
2021/06/20 03:24:58;;;;;;;12.43;9.57;;;;;;;18.88;91.71;100739.47;5084980;28;20032;-74
2021/06/20 03:27:25;;;;;;;14.13;10.35;;;;;;;18.85;92.18;100742.50;5087285;28;20040;-73
2021/06/20 03:29:51;;;;;;;14.27;10.93;;;;;;;18.86;91.90;100729.03;5080370;28;20024;-74
2021/06/20 03:32:18;;;;;;;10.73;9.65;;;;;;;18.85;92.64;100727.41;5085967;28;20039;-73
2021/06/20 03:34:44;;;;;;;13.13;10.93;;;;;;;18.91;92.06;100724.94;5082011;28;20032;-72
2021/06/20 03:37:10;;;;;;;13.05;10.02;;;;;;;18.99;91.95;100720.25;5085636;28;20032;-73
2021/06/20 03:39:36;;;;;;;13.77;9.95;;;;;;;19.03;91.74;100713.53;5063609;28;20074;-72
2021/06/20 03:42:02;;;;;;;12.25;10.35;;;;;;;19.05;91.96;100714.13;5076052;28;20827;-72
2021/06/20 03:44:27;;;;;;;12.35;10.90;;;;;;;19.16;91.80;100709.25;5075250;28;20768;-73
2021/06/20 03:46:53;;;;;;;14.52;10.35;;;;;;;19.11;92.08;100693.88;5084715;28;20439;-72
2021/06/20 03:49:19;;;;;;;12.07;10.10;;;;;;;19.10;92.11;100680.81;5085866;28;20481;-73
2021/06/20 03:51:44;;;;;;;18.45;11.00;;;;;;;19.18;92.11;100683.28;5066462;28;20072;-73
2021/06/20 03:54:10;;;;;;;15.73;10.93;;;;;;;19.30;91.63;100684.28;5067552;28;20043;-72
2021/06/20 03:56:36;;;;;;;14.45;11.45;;;;;;;19.32;91.78;100673.44;5078081;28;20093;-73
2021/06/20 03:59:01;;;;;;;14.98;10.65;;;;;;;19.47;91.23;100670.56;5085571;28;20089;-72
2021/06/20 04:01:27;;;;;;;14.65;10.45;;;;;;;19.60;90.76;100666.03;5069179;28;20105;-72
2021/06/20 04:03:53;;;;;;;17.08;10.82;;;;;;;19.71;90.34;100653.94;5065458;28;20041;-73
2021/06/20 04:06:18;;;;;;;14.98;11.00;;;;;;;19.80;89.79;100646.59;5063636;28;20079;-72
2021/06/20 04:08:44;;;;;;;14.90;10.55;;;;;;;19.84;89.91;100651.25;5076211;28;20028;-73
2021/06/20 04:11:09;;;;;;;13.88;10.05;;;;;;;19.84;90.19;100661.91;5064525;28;20068;-73
2021/06/20 04:13:35;;;;;;;13.55;10.90;;;;;;;19.98;89.39;100659.19;5084822;28;20063;-72
2021/06/20 04:16:01;;;;;;;13.73;10.60;;;;;;;20.08;88.85;100667.56;5071887;28;20119;-72
2021/06/20 04:18:26;;;;;;;14.50;11.90;;;;;;;20.23;89.11;100833.22;5086178;28;20670;-70
2021/06/20 04:20:52;;;;;;;20.65;12.40;;;;;;;20.21;89.27;100869.06;5074378;28;20089;-71
2021/06/20 04:23:17;;;;;;;18.98;12.75;;;;;;;20.14;89.96;100846.97;5066192;28;20032;-73
2021/06/20 04:25:43;;;;;;;17.25;13.20;;;;;;;20.28;89.38;100839.78;5080616;28;20043;-71
2021/06/20 04:28:08;;;;;;;14.65;12.63;;;;;;;20.34;89.47;100830.94;5085325;28;20032;-71
2021/06/20 04:30:34;;;;;;;12.73;11.40;;;;;;;20.40;89.40;100832.78;5082699;28;20131;-72
2021/06/20 04:33:00;;;;;;;19.50;12.15;;;;;;;20.39;90.13;100839.13;5082665;28;20035;-72
2021/06/20 04:35:26;;;;;;;17.90;13.52;;;;;;;20.38;92.16;100840.97;5083865;28;20048;-71
2021/06/20 04:37:51;;;;;;;21.08;13.60;;;;;;;20.29;93.58;100822.78;5078535;28;20404;-72
2021/06/20 04:40:21;;;;;;;17.85;12.55;;;;;;;20.17;94.37;100827.91;5082898;28;20040;-73
2021/06/20 04:42:54;;;;;;;11.75;9.80;;;;;;;20.03;94.55;100809.28;5082249;28;20704;-71
2021/06/20 04:45:20;;;;;;;10.55;8.38;;;;;;;19.93;95.37;100816.88;5068898;28;20695;-74
2021/06/20 04:47:46;;;;;;;14.50;7.22;;;;;;;19.87;95.62;100816.88;5082320;28;20485;-73
2021/06/20 04:50:12;;;;;;;10.38;6.13;;;;;;;19.73;96.67;100808.09;5084352;28;20039;-73
2021/06/20 04:52:42;;;;;;;8.10;6.10;;;;;;;19.67;97.80;100801.72;5085243;28;20050;-73
2021/06/20 04:55:09;;;;;;;13.63;6.63;;;;;;;19.61;98.66;100774.09;5082059;28;20039;-72
2021/06/20 04:57:36;;;;;;;12.55;7.15;;;;;;;19.47;99.90;100779.63;5085182;28;20093;-73
2021/06/20 05:00:05;;;;;;;13.40;6.60;;;;;;;19.43;99.47;100771.22;5075651;28;20048;-72
2021/06/20 05:02:30;;;;;;;9.02;6.05;;;;;;;19.39;100.00;100777.97;5077398;28;20046;-73
2021/06/20 05:04:56;;;;;;;12.63;6.85;;;;;;;19.37;100.00;100804.78;5084400;28;20032;-74
2021/06/20 05:07:22;;;;;;;8.30;5.95;;;;;;;19.33;100.00;100803.56;5082280;28;20064;-73
2021/06/20 05:09:48;;;;;;;12.13;6.85;;;;;;;19.34;100.00;100817.66;5081852;28;20032;-73
2021/06/20 05:12:14;;;;;;;10.00;6.13;;;;;;;19.25;100.00;100815.19;5080663;28;20087;-73
2021/06/20 05:14:43;;;;;;;11.73;5.28;;;;;;;19.24;99.52;100812.75;5083155;28;20039;-72
2021/06/20 05:17:13;;;;;;;8.05;5.05;;;;;;;19.22;100.00;100825.41;5064769;28;20029;-73
2021/06/20 05:19:40;;;;;;;14.45;5.20;;;;;;;19.10;100.00;100803.94;5072634;28;20029;-72
2021/06/20 05:22:06;;;;;;;13.32;5.22;;;;;;;19.08;100.00;100810.44;5081047;28;20043;-73
2021/06/20 05:24:32;;;;;;;11.23;5.53;;;;;;;18.99;100.00;100786.72;5081227;28;20426;-73
2021/06/20 05:26:58;;;;;;;10.57;5.40;;;;;;;18.95;100.00;100795.28;5085890;28;20028;-74
2021/06/20 05:29:23;;;;;;;12.85;4.70;;;;;;;18.95;100.00;100797.94;5084284;28;20844;-74
2021/06/20 05:31:49;;;;;;;12.75;3.83;;;;;;;18.86;99.98;100776.06;5079104;28;20575;-75
2021/06/20 05:34:15;;;;;;;9.02;4.20;;;;;;;18.84;100.00;100773.59;5065271;28;20695;-75
2021/06/20 05:36:40;;;;;;;5.95;3.20;;;;;;;18.77;100.00;100766.59;5064928;28;20035;-74
2021/06/20 05:39:06;;;;;;;10.20;3.55;;;;;;;18.78;100.00;100752.28;5079838;28;20063;-73
2021/06/20 05:41:31;;;;;;;11.55;3.40;;;;;;;18.76;100.00;100756.97;5082354;28;20051;-73
2021/06/20 05:43:57;;;;;;;11.55;3.55;;;;;;;18.72;100.00;100756.53;5078135;28;20040;-73
2021/06/20 05:46:23;;;;;;;9.65;3.17;;;;;;;18.73;100.00;100754.72;5073201;28;20028;-73
2021/06/20 05:48:49;;;;;;;10.00;3.67;;;;;;;18.66;100.00;100752.84;5084820;28;20100;-73
2021/06/20 05:51:15;;;;;;;7.75;3.15;;;;;;;18.61;100.00;100734.06;5082526;28;20035;-74
2021/06/20 05:53:41;;;;;;;10.88;3.42;;;;;;;18.55;100.00;100718.91;5077437;28;20047;-73
2021/06/20 05:56:06;;;;;;;11.52;3.00;;;;;;;18.54;100.00;100704.00;5079168;28;20032;-73
2021/06/20 05:58:32;;;;;;;9.55;2.60;;;;;;;18.54;100.00;100689.91;5083762;28;20040;-72
2021/06/20 06:00:58;;;;;;;8.35;2.85;;;;;;;18.58;100.00;100686.63;5079580;28;20078;-73
2021/06/20 06:03:24;;;;;;;5.47;2.53;;;;;;;18.55;100.00;100676.41;5082799;28;20454;-73
2021/06/20 06:05:49;;;;;;;7.22;2.70;;;;;;;18.48;100.00;100670.28;5084596;28;20039;-73
2021/06/20 06:08:15;;;;;;;6.00;2.60;;;;;;;18.49;100.00;100654.13;5075997;28;20055;-73
2021/06/20 06:10:40;;;;;;;7.03;2.55;;;;;;;18.48;100.00;100657.00;5071347;28;20039;-73
2021/06/20 06:13:06;;;;;;;10.40;2.90;;;;;;;18.48;100.00;100649.03;5076007;28;20120;-73
2021/06/20 06:15:31;;;;;;;7.75;2.50;;;;;;;18.45;100.00;100644.91;5081067;28;20040;-72
2021/06/20 06:17:58;;;;;;;8.25;2.75;;;;;;;18.47;100.00;100639.41;5063954;28;20444;-74
2021/06/20 06:20:25;;;;;;;9.43;2.95;;;;;;;18.48;100.00;100652.50;5075579;28;20036;-73
2021/06/20 06:22:51;;;;;;;8.50;2.90;;;;;;;18.49;100.00;100655.97;5052248;28;20044;-74
2021/06/20 06:25:17;;;;;;;7.50;2.90;;;;;;;18.51;100.00;100674.34;5074332;28;20064;-73
2021/06/20 06:27:43;;;;;;;7.75;3.15;;;;;;;18.52;100.00;100673.34;5075430;28;20036;-74
2021/06/20 06:30:10;;;;;;;9.88;3.30;;;;;;;18.51;100.00;100666.38;5077707;28;20032;-73
2021/06/20 06:32:37;;;;;;;8.45;3.20;;;;;;;18.59;100.00;100674.16;5076647;28;20467;-73
2021/06/20 06:35:03;;;;;;;9.15;3.50;;;;;;;18.54;100.00;100664.16;5075794;28;20683;-74
2021/06/20 06:37:28;;;;;;;6.30;3.50;;;;;;;18.58;100.00;100665.38;5069150;28;20029;-74
2021/06/20 06:39:54;;;;;;;7.78;3.38;;;;;;;18.67;100.00;100666.03;5077863;28;20048;-72
2021/06/20 06:42:25;;;;;;;6.88;3.58;;;;;;;18.79;100.00;100669.72;5075683;28;20090;-72
2021/06/20 06:44:55;;;;;;;11.65;4.05;;;;;;;18.86;100.00;100673.22;5076260;28;20131;-73
2021/06/20 06:47:21;;;;;;;10.43;3.05;;;;;;;18.99;100.00;100664.44;5078065;28;20197;-73
2021/06/20 06:49:48;;;;;;;7.82;3.60;;;;;;;19.09;100.00;100640.13;5080076;28;20107;-73
2021/06/20 06:52:13;;;;;;;7.00;3.60;;;;;;;19.33;99.97;100646.66;5073826;28;20040;-73
2021/06/20 06:54:39;;;;;;;8.20;3.42;;;;;;;19.42;99.32;100647.22;5076446;28;20040;-74
2021/06/20 06:57:05;;;;;;;8.23;3.47;;;;;;;19.58;99.23;100653.97;5081296;28;20043;-73
2021/06/20 06:59:31;;;;;;;6.03;3.35;;;;;;;19.69;98.88;100657.84;5049427;28;20048;-74
2021/06/20 07:01:57;;;;;;;8.75;3.67;;;;;;;19.81;98.73;100653.53;5070481;28;20036;-74
2021/06/20 07:04:22;;;;;;;9.48;3.40;;;;;;;19.92;98.84;100647.53;5063030;28;20036;-72
2021/06/20 07:06:48;;;;;;;10.52;3.40;;;;;;;20.05;96.98;100640.56;5065458;28;20556;-72
2021/06/20 07:09:13;;;;;;;12.52;3.65;;;;;;;20.09;97.42;100644.41;5074165;28;20466;-72
2021/06/20 07:11:39;;;;;;;10.45;3.53;;;;;;;20.22;97.83;100645.16;5065905;28;20032;-73
2021/06/20 07:14:04;;;;;;;8.38;3.45;;;;;;;20.34;96.65;100648.00;5072848;28;20123;-73
2021/06/20 07:16:30;;;;;;;11.10;4.15;;;;;;;20.48;95.24;100653.25;5075099;28;20635;-72
2021/06/20 07:18:55;;;;;;;8.82;3.47;;;;;;;20.60;94.91;100655.00;5049710;28;20130;-71
2021/06/20 07:21:21;;;;;;;8.30;3.58;;;;;;;20.65;94.83;100650.91;5074544;28;20027;-73
2021/06/20 07:23:47;;;;;;;9.93;3.63;;;;;;;20.87;96.18;100665.53;5078576;28;20063;-72
2021/06/20 07:26:12;;;;;;;10.45;3.25;;;;;;;21.00;95.06;100665.41;5074792;28;20035;-72
2021/06/20 07:28:38;;;;;;;10.77;3.65;;;;;;;21.23;95.34;100665.81;5080511;28;20036;-72
2021/06/20 07:31:04;;;;;;;11.48;3.25;;;;;;;21.41;94.15;100678.41;5064556;28;20098;-72
2021/06/20 07:33:30;;;;;;;12.75;3.30;;;;;;;21.67;91.80;100674.69;5074955;28;20040;-73
2021/06/20 07:35:57;;;;;;;9.50;3.15;;;;;;;21.85;91.73;100665.84;5070108;28;20493;-73
2021/06/20 07:38:24;;;;;;;9.93;3.20;;;;;;;21.92;88.95;100664.72;5082125;28;20028;-72
2021/06/20 07:40:49;;;;;;;17.33;4.28;;;;;;;22.11;89.18;100662.03;5067004;28;20036;-73
2021/06/20 07:43:15;;;;;;;15.75;4.15;;;;;;;22.15;90.25;100669.41;5081816;28;20439;-73
2021/06/20 07:45:41;;;;;;;8.60;3.50;;;;;;;22.32;89.46;100664.28;5069218;28;20036;-74
2021/06/20 07:48:07;;;;;;;5.70;3.17;;;;;;;22.32;87.61;100658.94;5076511;28;20032;-74
2021/06/20 07:50:34;;;;;;;11.30;3.47;;;;;;;22.42;88.90;100650.38;5081646;28;20488;-75
2021/06/20 07:53:00;;;;;;;16.38;4.10;;;;;;;22.46;88.68;100648.06;5081618;28;20798;-75
2021/06/20 07:55:25;;;;;;;15.15;4.85;;;;;;;22.60;86.02;100654.81;5053913;28;20469;-74
2021/06/20 07:57:51;;;;;;;10.55;3.92;;;;;;;22.72;87.80;100658.34;5082506;28;20039;-75
2021/06/20 08:00:17;;;;;;;10.75;3.53;;;;;;;22.90;86.65;100668.13;5078285;28;20120;-73
2021/06/20 08:02:42;;;;;;;13.68;4.45;;;;;;;22.99;86.28;100663.28;5066661;28;20093;-73
2021/06/20 08:05:09;;;;;;;9.55;3.38;;;;;;;23.20;84.78;100664.59;5080149;28;20028;-74
2021/06/20 08:07:35;;;;;;;11.88;3.90;;;;;;;23.43;87.40;100663.81;5073926;28;20032;-73
2021/06/20 08:10:00;;;;;;;15.02;4.20;;;;;;;23.39;82.56;100667.97;5074580;28;20550;-74
2021/06/20 08:12:28;;;;;;;15.48;4.50;;;;;;;23.46;84.77;100670.53;5080443;28;20039;-75
2021/06/20 08:14:54;;;;;;;16.75;3.97;;;;;;;23.66;84.44;100673.66;5071605;28;20512;-73
2021/06/20 08:17:20;;;;;;;14.07;4.07;;;;;;;23.77;87.60;100681.91;5061666;28;20032;-73
2021/06/20 08:19:45;;;;;;;16.10;3.78;;;;;;;23.85;81.05;100670.88;5078901;28;20048;-73
2021/06/20 08:22:11;;;;;;;12.43;3.53;;;;;;;23.79;81.05;100678.00;5084939;28;20276;-74
2021/06/20 08:24:38;;;;;;;10.07;3.15;;;;;;;23.98;81.80;100692.03;5076630;28;20040;-72
2021/06/20 08:27:05;;;;;;;12.65;3.92;;;;;;;23.89;80.06;100685.41;5077912;28;20067;-72
2021/06/20 08:29:30;;;;;;;12.80;3.50;;;;;;;23.62;78.70;100691.25;5078861;28;20769;-73
2021/06/20 08:31:56;;;;;;;12.25;3.65;;;;;;;23.26;81.01;100694.97;5072771;28;20043;-74
2021/06/20 08:34:22;;;;;;;9.20;3.50;;;;;;;23.02;84.01;100694.09;5066252;28;20035;-74
2021/06/20 08:36:47;;;;;;;7.55;3.15;;;;;;;22.90;84.63;100684.19;5070842;28;20059;-73
2021/06/20 08:39:13;;;;;;;10.23;3.80;;;;;;;22.81;85.12;100698.13;5080935;28;20032;-73
2021/06/20 08:41:42;;;;;;;13.82;3.40;;;;;;;22.68;88.70;100693.81;5080550;28;20036;-72
2021/06/20 08:44:20;;;;;;;10.20;3.85;;;;;;;22.57;85.92;100695.38;5071523;28;20024;-73
2021/06/20 08:46:47;;;;;;;12.30;3.72;;;;;;;22.59;86.91;100711.22;5074110;28;20040;-73
2021/06/20 08:49:12;;;;;;;12.63;3.67;;;;;;;22.71;86.65;100706.69;5071381;28;20032;-74
2021/06/20 08:51:39;;;;;;;12.73;4.03;;;;;;;22.88;87.04;100714.88;5078434;28;20285;-73
2021/06/20 08:54:06;;;;;;;10.70;3.90;;;;;;;22.89;88.87;100722.69;5076259;28;20032;-73
2021/06/20 08:56:31;;;;;;;8.07;3.50;;;;;;;22.74;89.70;100720.44;5077106;28;20042;-75
2021/06/20 08:58:57;;;;;;;12.40;3.75;;;;;;;22.59;87.06;100719.22;5061995;28;20035;-74
2021/06/20 09:01:24;;;;;;;11.75;3.83;;;;;;;22.35;88.12;100724.44;5069752;28;20043;-72
2021/06/20 09:03:49;;;;;;;6.55;2.95;;;;;;;22.13;87.10;100742.75;5072233;28;20037;-73
2021/06/20 09:06:18;;;;;;;10.88;3.67;;;;;;;22.16;87.52;100732.44;5073055;28;20044;-75
2021/06/20 09:08:52;;;;;;;8.40;3.70;;;;;;;22.25;85.95;100741.03;5052771;28;20059;-74
2021/06/20 09:11:31;;;;;;;9.20;3.50;;;;;;;22.38;88.54;100740.03;5080303;28;20173;-74
2021/06/20 09:14:01;;;;;;;10.95;3.80;;;;;;;22.37;87.25;100751.75;5041129;28;20040;-73
2021/06/20 09:16:26;;;;;;;10.95;3.97;;;;;;;22.20;84.61;100751.53;5081088;28;20122;-74
2021/06/20 09:18:52;;;;;;;11.93;4.30;;;;;;;22.07;83.90;100754.34;5083404;28;20079;-73
2021/06/20 09:21:26;;;;;;;8.35;4.00;;;;;;;21.96;83.06;100769.25;5075596;28;20046;-73
2021/06/20 09:23:56;;;;;;;6.68;3.85;;;;;;;21.93;82.93;100775.03;5074594;28;20476;-73
2021/06/20 09:26:32;;;;;;;8.13;4.00;;;;;;;21.85;84.57;100781.47;5078438;28;20036;-73
2021/06/20 09:28:58;;;;;;;6.63;3.97;;;;;;;21.81;85.15;100774.13;5079765;28;20512;-72
2021/06/20 09:31:24;;;;;;;9.63;4.53;;;;;;;21.74;90.04;100772.34;5037782;28;20062;-74
2021/06/20 09:33:58;;;;;;;10.65;4.38;;;;;;;21.74;90.78;100782.22;5078448;28;20047;-75
2021/06/20 09:36:28;;;;;;;6.05;4.10;;;;;;;21.84;89.31;100785.19;5069531;28;20145;-75
2021/06/20 09:38:54;;;;;;;7.47;4.53;;;;;;;21.96;84.29;100777.25;5071463;28;20046;-73
2021/06/20 09:41:19;;;;;;;12.93;4.78;;;;;;;21.99;87.86;100781.34;5073524;28;20158;-74
2021/06/20 09:43:53;;;;;;;12.07;4.78;;;;;;;21.94;83.81;100790.00;5077225;28;20735;-72
2021/06/20 09:46:19;;;;;;;11.68;4.65;;;;;;;21.96;86.54;100780.75;5066795;28;20024;-73
2021/06/20 09:48:45;;;;;;;8.55;4.75;;;;;;;22.07;86.25;100781.06;5060727;28;20106;-72
2021/06/20 09:51:22;;;;;;;11.55;4.70;;;;;;;22.31;84.29;100779.38;5066814;28;20044;-74
2021/06/20 09:53:50;;;;;;;11.85;4.47;;;;;;;22.66;82.69;100781.41;5066678;28;20032;-73
2021/06/20 09:56:21;;;;;;;10.77;4.85;;;;;;;22.84;80.53;100785.91;5069550;28;20028;-74
2021/06/20 09:58:59;;;;;;;9.80;4.38;;;;;;;23.16;78.78;100769.66;5075240;28;20151;-71
2021/06/20 10:01:27;;;;;;;14.00;4.68;;;;;;;23.52;74.57;100768.63;5071220;28;20032;-76
2021/06/20 10:03:53;;;;;;;8.10;4.60;;;;;;;23.87;74.88;100783.94;5079330;28;20654;-73
2021/06/20 10:06:19;;;;;;;8.95;4.80;;;;;;;23.75;74.16;100778.53;5073773;28;20040;-73
2021/06/20 10:08:45;;;;;;;9.15;4.90;;;;;;;24.25;74.02;100766.53;5076340;28;20511;-73
2021/06/20 10:11:13;;;;;;;8.02;4.60;;;;;;;24.53;70.17;100765.78;5057354;28;20027;-74
2021/06/20 10:13:39;;;;;;;8.50;4.28;;;;;;;24.89;72.69;100773.66;5071323;28;20078;-73
2021/06/20 10:16:18;;;;;;;10.13;4.30;;;;;;;25.19;72.92;100771.50;5074940;28;20124;-72
2021/06/20 10:18:50;;;;;;;9.10;4.78;;;;;;;25.33;67.50;100765.84;5082117;28;20047;-73
2021/06/20 10:21:30;;;;;;;11.77;4.22;;;;;;;25.40;70.70;100774.56;5081833;28;20047;-73
2021/06/20 10:24:03;;;;;;;9.55;4.38;;;;;;;25.71;70.15;100773.16;5072507;28;20036;-73
2021/06/20 10:26:29;;;;;;;7.18;4.30;;;;;;;25.68;67.38;100778.22;5053840;28;20036;-72
2021/06/20 10:28:54;;;;;;;11.98;4.28;;;;;;;25.61;67.77;100773.78;5075273;28;20038;-72
2021/06/20 10:31:31;;;;;;;13.30;4.32;;;;;;;25.95;67.50;100770.28;5062900;28;20568;-73
2021/06/20 10:33:57;;;;;;;8.18;4.72;;;;;;;25.74;67.30;100782.59;5075807;28;20551;-73
2021/06/20 10:36:22;;;;;;;9.68;4.57;;;;;;;25.66;67.27;100774.97;5074781;28;20120;-73
2021/06/20 10:38:49;;;;;;;8.32;4.07;;;;;;;25.75;66.27;100768.06;5076769;28;20787;-73
2021/06/20 10:41:25;;;;;;;6.43;3.85;;;;;;;25.47;68.50;100780.59;5072677;28;20107;-73
2021/06/20 10:43:58;;;;;;;8.80;4.18;;;;;;;25.28;70.06;100779.19;5076814;28;20051;-73
2021/06/20 10:46:24;;;;;;;7.50;4.32;;;;;;;25.03;68.06;100774.97;5070266;28;20120;-74
2021/06/20 10:48:50;;;;;;;6.72;4.05;;;;;;;25.26;69.26;100774.06;5067696;28;20662;-72
2021/06/20 10:51:20;;;;;;;10.23;4.45;;;;;;;25.56;65.02;100773.75;5074073;28;20051;-73
2021/06/20 10:53:46;;;;;;;8.48;3.90;;;;;;;25.92;65.50;100773.44;5073810;28;20048;-73
2021/06/20 10:56:26;;;;;;;6.35;3.92;;;;;;;26.18;64.94;100779.97;5059583;28;20048;-72
2021/06/20 10:58:54;;;;;;;7.53;3.97;;;;;;;25.96;65.18;100775.41;5083508;28;20036;-73
2021/06/20 11:01:39;;;;;;;7.25;3.92;;;;;;;25.93;64.50;100777.78;5059320;28;20059;-72
2021/06/20 11:04:05;;;;;;;8.15;4.10;;;;;;;26.07;64.15;100765.63;5073119;28;20071;-71
2021/06/20 11:06:30;;;;;;;8.10;3.83;;;;;;;26.07;65.50;100786.28;5073459;28;20191;-74
2021/06/20 11:08:59;;;;;;;5.53;4.10;;;;;;;26.14;64.67;100784.22;5056801;28;21799;-73
2021/06/20 11:11:31;;;;;;;6.75;4.07;;;;;;;26.22;66.53;100786.50;5060530;28;20030;-74
2021/06/20 11:13:57;;;;;;;5.15;4.05;;;;;;;26.98;63.30;100789.22;5067760;28;20036;-73
2021/06/20 11:16:46;;;;;;;7.97;4.32;;;;;;;27.57;62.46;100790.25;5080285;28;20032;-74